Lucernemines, Pennsylvania
Current Conditions -  °F | °C
As of 11:55 PM on Monday 20 Oct 2014 (Local Time) from KIDI Reporting Station
Overcast Overcast  
Wind Chill: 50°   Ceiling: 4300
Heat Index: 50°   Visibility: 10mi
Dew Point: 46°   Wind: 5mph
Humidity: 87%   Direction: 240°WSW
Pressure: 29.92"   Gusts: NA
Location:  40.56°N, 79.13°W
Report Text: KIDI 210355Z AUTO 24004KT 10SM FEW027 FEW032 OVC043 10/08 A2992 RMK A01
Loading
Personal Weather Stations






























Interactive Weather Map
Tropical Storm Tracking
New forecast layout! Learn more

10-Day Weather Forecast

Advertisements
Track Severe Weather on mobile